sensor_id;sensor_type;location;lat;lon;timestamp;temperature;humidity
76893;DHT22;65854;51.466;7.260;2023-02-28T00:00:08;1.40;65.70
76893;DHT22;65854;51.466;7.260;2023-02-28T00:02:36;1.40;66.00
76893;DHT22;65854;51.466;7.260;2023-02-28T00:05:02;1.40;66.00
76893;DHT22;65854;51.466;7.260;2023-02-28T00:07:29;1.40;66.00
76893;DHT22;65854;51.466;7.260;2023-02-28T00:09:55;1.30;65.90
76893;DHT22;65854;51.466;7.260;2023-02-28T00:12:21;1.30;66.10
76893;DHT22;65854;51.466;7.260;2023-02-28T00:14:46;1.30;66.90
76893;DHT22;65854;51.466;7.260;2023-02-28T00:17:12;1.30;66.60
76893;DHT22;65854;51.466;7.260;2023-02-28T00:19:37;1.30;66.60
76893;DHT22;65854;51.466;7.260;2023-02-28T00:22:03;1.20;66.60
76893;DHT22;65854;51.466;7.260;2023-02-28T00:24:29;1.20;66.60
76893;DHT22;65854;51.466;7.260;2023-02-28T00:26:54;1.20;66.70
76893;DHT22;65854;51.466;7.260;2023-02-28T00:29:20;1.20;66.50
76893;DHT22;65854;51.466;7.260;2023-02-28T00:31:45;1.20;67.10
76893;DHT22;65854;51.466;7.260;2023-02-28T00:34:11;1.20;66.70
76893;DHT22;65854;51.466;7.260;2023-02-28T00:36:36;1.20;66.90
76893;DHT22;65854;51.466;7.260;2023-02-28T00:39:02;1.20;66.90
76893;DHT22;65854;51.466;7.260;2023-02-28T00:41:28;1.20;66.80
76893;DHT22;65854;51.466;7.260;2023-02-28T00:43:53;1.10;66.90
76893;DHT22;65854;51.466;7.260;2023-02-28T00:46:19;1.10;67.20
76893;DHT22;65854;51.466;7.260;2023-02-28T00:48:44;1.00;67.80
76893;DHT22;65854;51.466;7.260;2023-02-28T00:51:10;1.00;67.80
76893;DHT22;65854;51.466;7.260;2023-02-28T00:53:36;1.10;67.80
76893;DHT22;65854;51.466;7.260;2023-02-28T00:56:02;1.00;67.30
76893;DHT22;65854;51.466;7.260;2023-02-28T00:58:28;0.90;68.00
76893;DHT22;65854;51.466;7.260;2023-02-28T01:00:54;0.90;67.80
76893;DHT22;65854;51.466;7.260;2023-02-28T01:03:21;0.90;68.10
76893;DHT22;65854;51.466;7.260;2023-02-28T01:05:47;0.90;67.80
76893;DHT22;65854;51.466;7.260;2023-02-28T01:08:14;1.00;67.80
76893;DHT22;65854;51.466;7.260;2023-02-28T01:10:40;0.90;67.90
76893;DHT22;65854;51.466;7.260;2023-02-28T01:13:06;0.90;67.80
76893;DHT22;65854;51.466;7.260;2023-02-28T01:15:32;0.90;67.90
76893;DHT22;65854;51.466;7.260;2023-02-28T01:17:59;0.90;68.00
76893;DHT22;65854;51.466;7.260;2023-02-28T01:20:24;0.90;68.00
76893;DHT22;65854;51.466;7.260;2023-02-28T01:22:50;0.90;68.20
76893;DHT22;65854;51.466;7.260;2023-02-28T01:25:15;0.80;68.50
76893;DHT22;65854;51.466;7.260;2023-02-28T01:27:41;0.80;68.40
76893;DHT22;65854;51.466;7.260;2023-02-28T01:30:08;0.80;68.50
76893;DHT22;65854;51.466;7.260;2023-02-28T01:32:34;0.80;68.40
76893;DHT22;65854;51.466;7.260;2023-02-28T01:35:00;0.80;68.40
76893;DHT22;65854;51.466;7.260;2023-02-28T01:37:25;0.70;68.70
76893;DHT22;65854;51.466;7.260;2023-02-28T01:39:52;0.80;68.20
76893;DHT22;65854;51.466;7.260;2023-02-28T01:42:17;0.80;68.30
76893;DHT22;65854;51.466;7.260;2023-02-28T01:45:06;0.80;68.70
76893;DHT22;65854;51.466;7.260;2023-02-28T01:47:41;0.70;68.50
76893;DHT22;65854;51.466;7.260;2023-02-28T01:50:12;0.70;68.70
76893;DHT22;65854;51.466;7.260;2023-02-28T01:52:40;0.70;68.70
76893;DHT22;65854;51.466;7.260;2023-02-28T01:55:07;0.60;69.20
76893;DHT22;65854;51.466;7.260;2023-02-28T01:57:36;0.70;69.20
76893;DHT22;65854;51.466;7.260;2023-02-28T02:00:10;0.60;68.90
76893;DHT22;65854;51.466;7.260;2023-02-28T02:02:39;0.60;69.20
76893;DHT22;65854;51.466;7.260;2023-02-28T02:05:08;0.60;68.90
76893;DHT22;65854;51.466;7.260;2023-02-28T02:07:38;0.60;69.40
76893;DHT22;65854;51.466;7.260;2023-02-28T02:10:16;0.60;69.00
76893;DHT22;65854;51.466;7.260;2023-02-28T02:18:43;0.50;69.20
76893;DHT22;65854;51.466;7.260;2023-02-28T02:23:54;0.50;68.70
76893;DHT22;65854;51.466;7.260;2023-02-28T02:26:47;0.50;69.00
76893;DHT22;65854;51.466;7.260;2023-02-28T02:32:07;0.50;68.70
76893;DHT22;65854;51.466;7.260;2023-02-28T02:35:09;0.50;68.90
76893;DHT22;65854;51.466;7.260;2023-02-28T02:40:27;0.40;69.10
76893;DHT22;65854;51.466;7.260;2023-02-28T02:45:52;0.40;69.10
76893;DHT22;65854;51.466;7.260;2023-02-28T02:48:23;0.40;69.00
76893;DHT22;65854;51.466;7.260;2023-02-28T02:50:54;0.40;69.20
76893;DHT22;65854;51.466;7.260;2023-02-28T02:53:24;0.40;69.00
76893;DHT22;65854;51.466;7.260;2023-02-28T02:55:52;0.30;69.20
76893;DHT22;65854;51.466;7.260;2023-02-28T02:58:24;0.30;68.90
76893;DHT22;65854;51.466;7.260;2023-02-28T03:00:53;0.30;69.10
76893;DHT22;65854;51.466;7.260;2023-02-28T03:03:20;0.30;69.10
76893;DHT22;65854;51.466;7.260;2023-02-28T03:05:54;0.30;69.00
76893;DHT22;65854;51.466;7.260;2023-02-28T03:08:21;0.30;69.20
76893;DHT22;65854;51.466;7.260;2023-02-28T03:10:50;0.30;68.80
76893;DHT22;65854;51.466;7.260;2023-02-28T03:26:23;0.00;69.90
76893;DHT22;65854;51.466;7.260;2023-02-28T03:29:05;0.00;70.20
76893;DHT22;65854;51.466;7.260;2023-02-28T03:31:43;0.00;70.10
76893;DHT22;65854;51.466;7.260;2023-02-28T03:34:29;0.00;70.00
76893;DHT22;65854;51.466;7.260;2023-02-28T03:37:10;0.00;70.10
76893;DHT22;65854;51.466;7.260;2023-02-28T03:39:41;0.00;70.00
76893;DHT22;65854;51.466;7.260;2023-02-28T03:42:18;0.10;69.70
76893;DHT22;65854;51.466;7.260;2023-02-28T03:44:59;0.10;69.70
76893;DHT22;65854;51.466;7.260;2023-02-28T03:47:37;0.00;69.70
76893;DHT22;65854;51.466;7.260;2023-02-28T03:50:15;0.00;69.70
76893;DHT22;65854;51.466;7.260;2023-02-28T03:52:47;0.00;69.80
76893;DHT22;65854;51.466;7.260;2023-02-28T03:55:16;-0.10;69.80
76893;DHT22;65854;51.466;7.260;2023-02-28T04:00:48;-0.20;70.10
76893;DHT22;65854;51.466;7.260;2023-02-28T04:03:14;-0.10;69.80
76893;DHT22;65854;51.466;7.260;2023-02-28T04:05:54;-0.10;69.70
76893;DHT22;65854;51.466;7.260;2023-02-28T04:08:21;-0.10;69.80
76893;DHT22;65854;51.466;7.260;2023-02-28T04:11:04;-0.10;69.60
76893;DHT22;65854;51.466;7.260;2023-02-28T04:13:31;-0.10;69.80
76893;DHT22;65854;51.466;7.260;2023-02-28T04:15:57;-0.20;69.00
76893;DHT22;65854;51.466;7.260;2023-02-28T04:18:23;-0.10;69.80
76893;DHT22;65854;51.466;7.260;2023-02-28T04:20:48;-0.10;69.70
76893;DHT22;65854;51.466;7.260;2023-02-28T04:23:14;-0.20;69.90
76893;DHT22;65854;51.466;7.260;2023-02-28T04:25:39;-0.20;69.60
76893;DHT22;65854;51.466;7.260;2023-02-28T04:28:06;-0.20;69.40
76893;DHT22;65854;51.466;7.260;2023-02-28T04:30:32;-0.20;69.60
76893;DHT22;65854;51.466;7.260;2023-02-28T04:32:58;-0.20;69.30
76893;DHT22;65854;51.466;7.260;2023-02-28T04:35:24;-0.20;69.40
76893;DHT22;65854;51.466;7.260;2023-02-28T04:37:50;-0.20;69.50
76893;DHT22;65854;51.466;7.260;2023-02-28T04:40:16;-0.20;69.10
76893;DHT22;65854;51.466;7.260;2023-02-28T04:42:41;-0.10;69.30
76893;DHT22;65854;51.466;7.260;2023-02-28T04:45:07;-0.20;69.70
76893;DHT22;65854;51.466;7.260;2023-02-28T04:47:35;-0.20;69.00
76893;DHT22;65854;51.466;7.260;2023-02-28T04:50:01;-0.30;69.60
76893;DHT22;65854;51.466;7.260;2023-02-28T04:52:27;-0.30;69.70
76893;DHT22;65854;51.466;7.260;2023-02-28T04:54:53;-0.30;69.60
76893;DHT22;65854;51.466;7.260;2023-02-28T04:57:18;-0.30;69.60
76893;DHT22;65854;51.466;7.260;2023-02-28T04:59:44;-0.20;69.30
76893;DHT22;65854;51.466;7.260;2023-02-28T05:02:09;-0.30;69.50
76893;DHT22;65854;51.466;7.260;2023-02-28T05:04:36;-0.40;69.80
76893;DHT22;65854;51.466;7.260;2023-02-28T05:07:02;-0.40;69.70
76893;DHT22;65854;51.466;7.260;2023-02-28T05:09:28;-0.40;69.70
76893;DHT22;65854;51.466;7.260;2023-02-28T05:11:55;-0.40;70.00
76893;DHT22;65854;51.466;7.260;2023-02-28T05:14:21;-0.40;69.80
76893;DHT22;65854;51.466;7.260;2023-02-28T05:16:46;-0.50;69.30
76893;DHT22;65854;51.466;7.260;2023-02-28T05:19:12;-0.50;69.60
76893;DHT22;65854;51.466;7.260;2023-02-28T05:21:40;-0.50;69.80
76893;DHT22;65854;51.466;7.260;2023-02-28T05:24:09;-0.50;69.70
76893;DHT22;65854;51.466;7.260;2023-02-28T05:26:37;-0.50;69.80
76893;DHT22;65854;51.466;7.260;2023-02-28T05:29:03;-0.50;69.30
76893;DHT22;65854;51.466;7.260;2023-02-28T05:31:29;-0.50;69.60
76893;DHT22;65854;51.466;7.260;2023-02-28T05:33:54;-0.50;69.40
76893;DHT22;65854;51.466;7.260;2023-02-28T05:36:20;-0.50;69.60
76893;DHT22;65854;51.466;7.260;2023-02-28T05:38:47;-0.50;69.70
76893;DHT22;65854;51.466;7.260;2023-02-28T05:41:14;-0.60;69.80
76893;DHT22;65854;51.466;7.260;2023-02-28T05:43:39;-0.60;69.90
76893;DHT22;65854;51.466;7.260;2023-02-28T05:46:06;-0.60;70.00
76893;DHT22;65854;51.466;7.260;2023-02-28T05:48:33;-0.60;69.80
76893;DHT22;65854;51.466;7.260;2023-02-28T05:51:00;-0.60;69.70
76893;DHT22;65854;51.466;7.260;2023-02-28T05:53:25;-0.60;69.50
76893;DHT22;65854;51.466;7.260;2023-02-28T05:55:51;-0.60;69.80
76893;DHT22;65854;51.466;7.260;2023-02-28T05:58:17;-0.60;69.40
76893;DHT22;65854;51.466;7.260;2023-02-28T06:00:43;-0.50;69.70
76893;DHT22;65854;51.466;7.260;2023-02-28T06:03:08;-0.50;69.20
76893;DHT22;65854;51.466;7.260;2023-02-28T06:05:34;-0.50;69.20
76893;DHT22;65854;51.466;7.260;2023-02-28T06:07:59;-0.60;69.30
76893;DHT22;65854;51.466;7.260;2023-02-28T06:10:26;-0.60;69.00
76893;DHT22;65854;51.466;7.260;2023-02-28T06:12:52;-0.70;69.70
76893;DHT22;65854;51.466;7.260;2023-02-28T06:15:29;-0.70;69.60
76893;DHT22;65854;51.466;7.260;2023-02-28T06:18:16;-0.60;69.40
76893;DHT22;65854;51.466;7.260;2023-02-28T06:21:11;-0.60;68.90
76893;DHT22;65854;51.466;7.260;2023-02-28T06:24:00;-0.70;69.20
76893;DHT22;65854;51.466;7.260;2023-02-28T06:26:26;-0.70;69.10
76893;DHT22;65854;51.466;7.260;2023-02-28T06:28:52;-0.70;69.30
76893;DHT22;65854;51.466;7.260;2023-02-28T06:31:23;-0.60;69.50
76893;DHT22;65854;51.466;7.260;2023-02-28T06:34:40;-0.60;68.90
76893;DHT22;65854;51.466;7.260;2023-02-28T06:37:26;-0.60;69.10
76893;DHT22;65854;51.466;7.260;2023-02-28T06:39:54;-0.60;68.60
76893;DHT22;65854;51.466;7.260;2023-02-28T06:42:24;-0.60;68.40
76893;DHT22;65854;51.466;7.260;2023-02-28T06:44:55;-0.60;68.00
76893;DHT22;65854;51.466;7.260;2023-02-28T06:47:20;-0.60;68.30
76893;DHT22;65854;51.466;7.260;2023-02-28T06:49:46;-0.50;68.00
76893;DHT22;65854;51.466;7.260;2023-02-28T06:52:12;-0.50;68.60
76893;DHT22;65854;51.466;7.260;2023-02-28T06:54:37;-0.50;68.20
76893;DHT22;65854;51.466;7.260;2023-02-28T06:57:03;-0.40;68.20
76893;DHT22;65854;51.466;7.260;2023-02-28T06:59:30;-0.40;68.20
76893;DHT22;65854;51.466;7.260;2023-02-28T07:01:55;-0.40;68.10
76893;DHT22;65854;51.466;7.260;2023-02-28T07:04:21;-0.40;68.00
76893;DHT22;65854;51.466;7.260;2023-02-28T07:06:53;-0.40;68.20
76893;DHT22;65854;51.466;7.260;2023-02-28T07:09:22;-0.40;67.60
76893;DHT22;65854;51.466;7.260;2023-02-28T07:11:47;-0.40;68.20
76893;DHT22;65854;51.466;7.260;2023-02-28T07:14:13;-0.30;67.50
76893;DHT22;65854;51.466;7.260;2023-02-28T07:16:39;-0.30;67.90
76893;DHT22;65854;51.466;7.260;2023-02-28T07:19:10;-0.30;67.30
76893;DHT22;65854;51.466;7.260;2023-02-28T07:21:38;-0.30;67.60
76893;DHT22;65854;51.466;7.260;2023-02-28T07:24:04;-0.20;68.10
76893;DHT22;65854;51.466;7.260;2023-02-28T07:26:29;-0.20;68.50
76893;DHT22;65854;51.466;7.260;2023-02-28T07:28:56;-0.20;68.40
76893;DHT22;65854;51.466;7.260;2023-02-28T07:31:23;-0.20;68.60
76893;DHT22;65854;51.466;7.260;2023-02-28T07:33:48;-0.20;68.40
76893;DHT22;65854;51.466;7.260;2023-02-28T07:36:15;-0.10;68.30
76893;DHT22;65854;51.466;7.260;2023-02-28T07:38:46;-0.10;67.70
76893;DHT22;65854;51.466;7.260;2023-02-28T07:41:16;-0.20;67.50
76893;DHT22;65854;51.466;7.260;2023-02-28T07:43:44;-0.20;67.60
76893;DHT22;65854;51.466;7.260;2023-02-28T07:46:13;-0.20;67.60
76893;DHT22;65854;51.466;7.260;2023-02-28T07:48:43;-0.20;67.50
76893;DHT22;65854;51.466;7.260;2023-02-28T07:51:08;-0.20;67.20
76893;DHT22;65854;51.466;7.260;2023-02-28T07:53:34;-0.10;66.10
76893;DHT22;65854;51.466;7.260;2023-02-28T07:56:01;-0.20;66.70
76893;DHT22;65854;51.466;7.260;2023-02-28T07:58:28;-0.10;66.40
76893;DHT22;65854;51.466;7.260;2023-02-28T08:00:54;-0.10;66.20
76893;DHT22;65854;51.466;7.260;2023-02-28T08:03:20;-0.10;65.40
76893;DHT22;65854;51.466;7.260;2023-02-28T08:05:47;-0.10;66.00
76893;DHT22;65854;51.466;7.260;2023-02-28T08:08:13;-0.10;66.20
76893;DHT22;65854;51.466;7.260;2023-02-28T08:10:40;0.00;66.20
76893;DHT22;65854;51.466;7.260;2023-02-28T08:13:06;0.20;65.90
76893;DHT22;65854;51.466;7.260;2023-02-28T08:15:32;0.30;64.80
76893;DHT22;65854;51.466;7.260;2023-02-28T08:17:58;0.30;64.60
76893;DHT22;65854;51.466;7.260;2023-02-28T08:20:24;0.30;64.50
76893;DHT22;65854;51.466;7.260;2023-02-28T08:22:50;0.30;64.10
76893;DHT22;65854;51.466;7.260;2023-02-28T08:25:16;0.30;64.30
76893;DHT22;65854;51.466;7.260;2023-02-28T08:27:42;0.30;63.80
76893;DHT22;65854;51.466;7.260;2023-02-28T08:30:10;0.30;63.30
76893;DHT22;65854;51.466;7.260;2023-02-28T08:32:36;0.30;63.30
76893;DHT22;65854;51.466;7.260;2023-02-28T08:35:01;0.30;63.30
76893;DHT22;65854;51.466;7.260;2023-02-28T08:37:28;0.30;63.40
76893;DHT22;65854;51.466;7.260;2023-02-28T08:39:54;0.30;63.10
76893;DHT22;65854;51.466;7.260;2023-02-28T08:42:19;0.30;62.70
76893;DHT22;65854;51.466;7.260;2023-02-28T08:44:45;0.40;62.70
76893;DHT22;65854;51.466;7.260;2023-02-28T08:47:11;0.40;63.00
76893;DHT22;65854;51.466;7.260;2023-02-28T08:49:37;0.50;63.00
76893;DHT22;65854;51.466;7.260;2023-02-28T08:52:03;0.50;62.00
76893;DHT22;65854;51.466;7.260;2023-02-28T08:54:29;0.50;61.40
76893;DHT22;65854;51.466;7.260;2023-02-28T08:56:56;0.50;61.90
76893;DHT22;65854;51.466;7.260;2023-02-28T08:59:22;0.50;61.60
76893;DHT22;65854;51.466;7.260;2023-02-28T09:01:48;0.50;61.10
76893;DHT22;65854;51.466;7.260;2023-02-28T09:04:14;0.50;61.60
76893;DHT22;65854;51.466;7.260;2023-02-28T09:06:39;0.60;61.90
76893;DHT22;65854;51.466;7.260;2023-02-28T09:09:05;0.70;61.80
76893;DHT22;65854;51.466;7.260;2023-02-28T09:11:33;0.80;61.80
76893;DHT22;65854;51.466;7.260;2023-02-28T09:13:59;0.80;61.20
76893;DHT22;65854;51.466;7.260;2023-02-28T09:16:26;0.90;62.20
76893;DHT22;65854;51.466;7.260;2023-02-28T09:18:53;1.00;61.10
76893;DHT22;65854;51.466;7.260;2023-02-28T09:21:19;1.00;60.70
76893;DHT22;65854;51.466;7.260;2023-02-28T09:23:47;1.10;60.80
76893;DHT22;65854;51.466;7.260;2023-02-28T09:26:26;1.10;60.00
76893;DHT22;65854;51.466;7.260;2023-02-28T09:28:54;1.20;59.60
76893;DHT22;65854;51.466;7.260;2023-02-28T09:31:26;1.20;57.70
76893;DHT22;65854;51.466;7.260;2023-02-28T09:33:54;1.20;57.00
76893;DHT22;65854;51.466;7.260;2023-02-28T09:36:22;1.30;56.90
76893;DHT22;65854;51.466;7.260;2023-02-28T09:38:48;1.40;56.70
76893;DHT22;65854;51.466;7.260;2023-02-28T09:43:46;1.50;55.00
76893;DHT22;65854;51.466;7.260;2023-02-28T09:46:32;1.50;55.40
76893;DHT22;65854;51.466;7.260;2023-02-28T09:49:03;1.50;54.80
76893;DHT22;65854;51.466;7.260;2023-02-28T09:51:50;1.60;54.40
76893;DHT22;65854;51.466;7.260;2023-02-28T09:54:22;1.60;53.90
76893;DHT22;65854;51.466;7.260;2023-02-28T10:05:20;1.80;54.10
76893;DHT22;65854;51.466;7.260;2023-02-28T10:10:30;2.00;52.80
76893;DHT22;65854;51.466;7.260;2023-02-28T10:13:00;2.00;54.10
76893;DHT22;65854;51.466;7.260;2023-02-28T10:15:31;2.10;53.60
76893;DHT22;65854;51.466;7.260;2023-02-28T10:18:03;2.10;51.00
76893;DHT22;65854;51.466;7.260;2023-02-28T10:20:34;2.10;51.80
76893;DHT22;65854;51.466;7.260;2023-02-28T10:23:21;2.10;52.30
76893;DHT22;65854;51.466;7.260;2023-02-28T10:26:01;2.20;52.10
76893;DHT22;65854;51.466;7.260;2023-02-28T10:28:29;2.30;52.10
76893;DHT22;65854;51.466;7.260;2023-02-28T10:30:56;2.20;51.70
76893;DHT22;65854;51.466;7.260;2023-02-28T10:33:34;2.20;51.70
76893;DHT22;65854;51.466;7.260;2023-02-28T10:36:01;2.30;51.80
76893;DHT22;65854;51.466;7.260;2023-02-28T10:38:35;2.40;51.10
76893;DHT22;65854;51.466;7.260;2023-02-28T10:41:05;2.40;50.90
76893;DHT22;65854;51.466;7.260;2023-02-28T10:43:31;2.40;50.30
76893;DHT22;65854;51.466;7.260;2023-02-28T10:51:03;2.50;49.00
76893;DHT22;65854;51.466;7.260;2023-02-28T10:53:36;2.50;49.10
76893;DHT22;65854;51.466;7.260;2023-02-28T11:01:40;2.70;48.70
76893;DHT22;65854;51.466;7.260;2023-02-28T11:07:20;2.80;48.10
76893;DHT22;65854;51.466;7.260;2023-02-28T11:09:52;2.90;48.00
76893;DHT22;65854;51.466;7.260;2023-02-28T11:12:32;2.90;48.60
76893;DHT22;65854;51.466;7.260;2023-02-28T11:15:03;3.00;48.30
76893;DHT22;65854;51.466;7.260;2023-02-28T11:17:31;3.00;48.30
76893;DHT22;65854;51.466;7.260;2023-02-28T11:20:04;2.90;47.40
76893;DHT22;65854;51.466;7.260;2023-02-28T11:22:37;2.90;47.70
76893;DHT22;65854;51.466;7.260;2023-02-28T11:25:09;2.90;47.70
76893;DHT22;65854;51.466;7.260;2023-02-28T11:27:47;2.90;47.70
76893;DHT22;65854;51.466;7.260;2023-02-28T11:32:59;3.00;48.40
76893;DHT22;65854;51.466;7.260;2023-02-28T11:35:38;3.10;48.80
76893;DHT22;65854;51.466;7.260;2023-02-28T11:38:09;3.20;48.50
76893;DHT22;65854;51.466;7.260;2023-02-28T11:40:52;3.30;48.80
76893;DHT22;65854;51.466;7.260;2023-02-28T11:49:07;3.40;47.30
76893;DHT22;65854;51.466;7.260;2023-02-28T12:00:44;3.80;47.90
76893;DHT22;65854;51.466;7.260;2023-02-28T12:05:50;3.90;47.80
76893;DHT22;65854;51.466;7.260;2023-02-28T12:11:43;4.10;47.40
76893;DHT22;65854;51.466;7.260;2023-02-28T12:14:47;4.00;46.70
76893;DHT22;65854;51.466;7.260;2023-02-28T12:17:43;3.90;46.60
76893;DHT22;65854;51.466;7.260;2023-02-28T12:20:34;3.90;47.20
76893;DHT22;65854;51.466;7.260;2023-02-28T12:28:42;3.90;47.50
76893;DHT22;65854;51.466;7.260;2023-02-28T12:31:18;3.90;47.10
76893;DHT22;65854;51.466;7.260;2023-02-28T12:33:52;4.00;47.60
76893;DHT22;65854;51.466;7.260;2023-02-28T12:36:20;4.10;46.20
76893;DHT22;65854;51.466;7.260;2023-02-28T12:41:48;4.10;47.20
76893;DHT22;65854;51.466;7.260;2023-02-28T12:44:40;4.10;47.60
76893;DHT22;65854;51.466;7.260;2023-02-28T12:47:15;4.10;47.20
76893;DHT22;65854;51.466;7.260;2023-02-28T12:49:56;4.10;48.70
76893;DHT22;65854;51.466;7.260;2023-02-28T12:55:26;4.20;48.10
76893;DHT22;65854;51.466;7.260;2023-02-28T12:57:59;4.30;47.50
76893;DHT22;65854;51.466;7.260;2023-02-28T13:00:36;4.30;47.70
76893;DHT22;65854;51.466;7.260;2023-02-28T13:06:00;4.40;47.50
76893;DHT22;65854;51.466;7.260;2023-02-28T13:11:02;4.50;47.00
76893;DHT22;65854;51.466;7.260;2023-02-28T13:13:30;4.40;47.20
76893;DHT22;65854;51.466;7.260;2023-02-28T13:16:11;4.40;48.30
76893;DHT22;65854;51.466;7.260;2023-02-28T13:18:43;4.30;47.30
76893;DHT22;65854;51.466;7.260;2023-02-28T13:21:29;4.40;48.10
76893;DHT22;65854;51.466;7.260;2023-02-28T13:23:57;4.50;47.80
76893;DHT22;65854;51.466;7.260;2023-02-28T13:29:27;4.40;47.90
76893;DHT22;65854;51.466;7.260;2023-02-28T13:39:59;4.70;47.80
76893;DHT22;65854;51.466;7.260;2023-02-28T13:47:39;4.80;47.00
76893;DHT22;65854;51.466;7.260;2023-02-28T13:53:31;4.80;47.30
76893;DHT22;65854;51.466;7.260;2023-02-28T13:56:07;4.80;49.20
76893;DHT22;65854;51.466;7.260;2023-02-28T14:01:15;4.80;48.80
76893;DHT22;65854;51.466;7.260;2023-02-28T14:03:58;4.80;47.40
76893;DHT22;65854;51.466;7.260;2023-02-28T14:06:37;4.80;47.50
76893;DHT22;65854;51.466;7.260;2023-02-28T14:09:39;4.90;48.80
76893;DHT22;65854;51.466;7.260;2023-02-28T14:15:39;4.90;49.40
76893;DHT22;65854;51.466;7.260;2023-02-28T14:18:33;4.80;49.80
76893;DHT22;65854;51.466;7.260;2023-02-28T14:27:12;4.90;49.60
76893;DHT22;65854;51.466;7.260;2023-02-28T14:35:29;5.20;49.60
76893;DHT22;65854;51.466;7.260;2023-02-28T14:38:12;5.20;50.10
76893;DHT22;65854;51.466;7.260;2023-02-28T14:40:40;5.10;49.00
76893;DHT22;65854;51.466;7.260;2023-02-28T14:43:19;5.10;48.70
76893;DHT22;65854;51.466;7.260;2023-02-28T14:45:50;5.10;49.20
76893;DHT22;65854;51.466;7.260;2023-02-28T14:48:16;5.10;48.90
76893;DHT22;65854;51.466;7.260;2023-02-28T14:50:52;5.10;49.30
76893;DHT22;65854;51.466;7.260;2023-02-28T14:53:20;5.10;48.60
76893;DHT22;65854;51.466;7.260;2023-02-28T14:55:47;5.10;48.90
76893;DHT22;65854;51.466;7.260;2023-02-28T14:58:25;5.10;49.20
76893;DHT22;65854;51.466;7.260;2023-02-28T15:00:53;5.10;47.50
76893;DHT22;65854;51.466;7.260;2023-02-28T15:03:36;5.20;48.10
76893;DHT22;65854;51.466;7.260;2023-02-28T15:06:20;5.20;47.60
76893;DHT22;65854;51.466;7.260;2023-02-28T15:08:46;5.30;47.70
76893;DHT22;65854;51.466;7.260;2023-02-28T15:11:17;5.20;48.10
76893;DHT22;65854;51.466;7.260;2023-02-28T15:13:51;5.20;47.80
76893;DHT22;65854;51.466;7.260;2023-02-28T15:16:28;5.20;47.70
76893;DHT22;65854;51.466;7.260;2023-02-28T15:19:02;5.20;47.90
76893;DHT22;65854;51.466;7.260;2023-02-28T15:21:33;5.20;48.50
76893;DHT22;65854;51.466;7.260;2023-02-28T15:24:43;5.20;47.70
76893;DHT22;65854;51.466;7.260;2023-02-28T15:26:58;5.20;47.30
76893;DHT22;65854;51.466;7.260;2023-02-28T15:29:28;5.20;47.30
76893;DHT22;65854;51.466;7.260;2023-02-28T15:32:03;5.30;48.00
76893;DHT22;65854;51.466;7.260;2023-02-28T15:34:38;5.30;47.30
76893;DHT22;65854;51.466;7.260;2023-02-28T15:37:25;5.30;47.30
76893;DHT22;65854;51.466;7.260;2023-02-28T15:39:52;5.30;46.70
76893;DHT22;65854;51.466;7.260;2023-02-28T15:42:20;5.30;46.80
76893;DHT22;65854;51.466;7.260;2023-02-28T15:44:47;5.30;46.50
76893;DHT22;65854;51.466;7.260;2023-02-28T15:47:23;5.30;47.00
76893;DHT22;65854;51.466;7.260;2023-02-28T15:50:03;5.30;46.90
76893;DHT22;65854;51.466;7.260;2023-02-28T15:52:39;5.30;46.90
76893;DHT22;65854;51.466;7.260;2023-02-28T15:55:19;5.30;46.40
76893;DHT22;65854;51.466;7.260;2023-02-28T15:57:48;5.30;47.10
76893;DHT22;65854;51.466;7.260;2023-02-28T16:00:19;5.40;47.80
76893;DHT22;65854;51.466;7.260;2023-02-28T16:02:45;5.40;48.00
76893;DHT22;65854;51.466;7.260;2023-02-28T16:07:41;5.30;48.70
76893;DHT22;65854;51.466;7.260;2023-02-28T16:10:10;5.20;48.60
76893;DHT22;65854;51.466;7.260;2023-02-28T16:12:38;5.20;49.40
76893;DHT22;65854;51.466;7.260;2023-02-28T16:15:28;5.10;49.30
76893;DHT22;65854;51.466;7.260;2023-02-28T16:17:56;5.00;49.60
76893;DHT22;65854;51.466;7.260;2023-02-28T16:20:24;5.00;49.10
76893;DHT22;65854;51.466;7.260;2023-02-28T16:22:51;4.90;49.40
76893;DHT22;65854;51.466;7.260;2023-02-28T16:25:22;4.80;49.80
76893;DHT22;65854;51.466;7.260;2023-02-28T16:27:50;4.80;49.80
76893;DHT22;65854;51.466;7.260;2023-02-28T16:30:26;4.70;49.60
76893;DHT22;65854;51.466;7.260;2023-02-28T16:32:55;4.70;49.80
76893;DHT22;65854;51.466;7.260;2023-02-28T16:35:21;4.70;49.80
76893;DHT22;65854;51.466;7.260;2023-02-28T16:37:48;4.70;50.00
76893;DHT22;65854;51.466;7.260;2023-02-28T16:40:15;4.60;50.40
76893;DHT22;65854;51.466;7.260;2023-02-28T16:42:42;4.50;50.70
76893;DHT22;65854;51.466;7.260;2023-02-28T16:45:16;4.50;50.80
76893;DHT22;65854;51.466;7.260;2023-02-28T16:47:43;4.50;50.40
76893;DHT22;65854;51.466;7.260;2023-02-28T16:52:48;4.30;50.10
76893;DHT22;65854;51.466;7.260;2023-02-28T16:55:15;4.30;50.40
76893;DHT22;65854;51.466;7.260;2023-02-28T16:57:41;4.20;50.20
76893;DHT22;65854;51.466;7.260;2023-02-28T17:00:08;4.20;50.90
76893;DHT22;65854;51.466;7.260;2023-02-28T17:02:36;4.10;50.80
76893;DHT22;65854;51.466;7.260;2023-02-28T17:05:02;4.10;51.30
76893;DHT22;65854;51.466;7.260;2023-02-28T17:07:27;4.10;51.30
76893;DHT22;65854;51.466;7.260;2023-02-28T17:09:53;4.00;51.30
76893;DHT22;65854;51.466;7.260;2023-02-28T17:12:19;4.00;51.80
76893;DHT22;65854;51.466;7.260;2023-02-28T17:14:44;4.00;51.40
76893;DHT22;65854;51.466;7.260;2023-02-28T17:17:17;3.90;51.60
76893;DHT22;65854;51.466;7.260;2023-02-28T17:19:43;3.90;51.90
76893;DHT22;65854;51.466;7.260;2023-02-28T17:22:10;3.80;52.30
76893;DHT22;65854;51.466;7.260;2023-02-28T17:24:38;3.80;52.20
76893;DHT22;65854;51.466;7.260;2023-02-28T17:27:05;3.80;52.50
76893;DHT22;65854;51.466;7.260;2023-02-28T17:29:33;3.80;52.60
76893;DHT22;65854;51.466;7.260;2023-02-28T17:31:59;3.70;52.80
76893;DHT22;65854;51.466;7.260;2023-02-28T17:34:24;3.70;53.00
76893;DHT22;65854;51.466;7.260;2023-02-28T17:36:51;3.70;53.10
76893;DHT22;65854;51.466;7.260;2023-02-28T17:39:18;3.60;53.20
76893;DHT22;65854;51.466;7.260;2023-02-28T17:41:53;3.60;53.40
76893;DHT22;65854;51.466;7.260;2023-02-28T17:44:19;3.50;53.80
76893;DHT22;65854;51.466;7.260;2023-02-28T17:46:46;3.50;54.00
76893;DHT22;65854;51.466;7.260;2023-02-28T17:49:12;3.50;54.10
76893;DHT22;65854;51.466;7.260;2023-02-28T17:51:38;3.50;53.90
76893;DHT22;65854;51.466;7.260;2023-02-28T17:54:05;3.50;54.00
76893;DHT22;65854;51.466;7.260;2023-02-28T17:56:31;3.40;54.50
76893;DHT22;65854;51.466;7.260;2023-02-28T17:58:57;3.40;54.00
76893;DHT22;65854;51.466;7.260;2023-02-28T18:01:24;3.40;54.20
76893;DHT22;65854;51.466;7.260;2023-02-28T18:03:51;3.30;54.50
76893;DHT22;65854;51.466;7.260;2023-02-28T18:06:34;3.30;54.70
76893;DHT22;65854;51.466;7.260;2023-02-28T18:09:00;3.40;54.90
76893;DHT22;65854;51.466;7.260;2023-02-28T18:11:27;3.30;54.60
76893;DHT22;65854;51.466;7.260;2023-02-28T18:14:07;3.30;55.30
76893;DHT22;65854;51.466;7.260;2023-02-28T18:16:33;3.30;55.30
76893;DHT22;65854;51.466;7.260;2023-02-28T18:18:59;3.30;55.10
76893;DHT22;65854;51.466;7.260;2023-02-28T18:21:27;3.20;55.50
76893;DHT22;65854;51.466;7.260;2023-02-28T18:23:53;3.20;54.90